| time (UTC) | temp C | wind direction | speed KPH | gust KPH | rain 1hr cm | rain 24hr cm | rain mn cm | humidity % | barometer mb |
| 20260507153023 | 13 | 335 | 9.7 | 30.6 | 0.00 | 0.48 | 0.03 | 44 | 1006.7 |
| 20260507151524 | 13 | 322 | 9.7 | 19.3 | 0.00 | 0.48 | 0.03 | 55 | 1006.9 |
| 20260507150015 | 13 | 311 | 12.9 | 22.5 | 0.00 | 0.48 | 0.03 | 53 | 1006.8 |
| 20260507144522 | 13 | 278 | 4.8 | 17.7 | 0.00 | 0.48 | 0.03 | 56 | 1007.0 |
| 20260507143004 | 13 | 293 | 6.4 | 19.3 | 0.00 | 0.48 | 0.03 | 59 | 1007.1 |
| 20260507141507 | 12 | 282 | 8.0 | 20.9 | 0.00 | 0.48 | 0.03 | 59 | 1007.1 |
| 20260507140016 | 12 | 335 | 4.8 | 14.5 | 0.00 | 0.48 | 0.03 | 59 | 1006.9 |
| 20260507134519 | 12 | 30 | 9.7 | 17.7 | 0.00 | 0.48 | 0.03 | 58 | 1007.0 |
| 20260507133004 | 12 | 359 | 6.4 | 20.9 | 0.00 | 0.48 | 0.03 | 61 | 1007.0 |
| 20260507131509 | 12 | 1 | 6.4 | 14.5 | 0.00 | 0.48 | 0.03 | 62 | 1007.2 |
| 20260507130011 | 12 | 5 | 4.8 | 9.7 | 0.00 | 0.48 | 0.03 | 66 | 1007.3 |
| 20260507124516 | 11 | 50 | 4.8 | 11.3 | 0.00 | 0.48 | 0.03 | 67 | 1007.4 |
| 20260507123023 | 11 | 45 | 1.6 | 11.3 | 0.00 | 0.48 | 0.03 | 71 | 1007.3 |
| 20260507121503 | 10 | 333 | 6.4 | 14.5 | 0.00 | 0.48 | 0.03 | 73 | 1007.4 |
| 20260507120008 | 10 | 25 | 3.2 | 6.4 | 0.00 | 0.48 | 0.03 | 76 | 1007.4 |
| 20260507114516 | 9 | 12 | 6.4 | 11.3 | 0.00 | 0.48 | 0.03 | 78 | 1007.4 |
| 20260507113025 | 9 | 355 | 3.2 | 9.7 | 0.00 | 0.48 | 0.03 | 79 | 1007.3 |
| 20260507111523 | 9 | 359 | 3.2 | 9.7 | 0.00 | 0.48 | 0.03 | 80 | 1007.2 |
| 20260507110007 | 8 | 35 | 0.0 | 4.8 | 0.00 | 0.48 | 0.03 | 80 | 1007.2 |
| 20260507104511 | 8 | 37 | 3.2 | 8.0 | 0.00 | 0.48 | 0.03 | 81 | 1006.8 |
| 20260507103016 | 8 | 358 | 3.2 | 9.7 | 0.00 | 0.48 | 0.03 | 81 | 1006.7 |
| 20260507101522 | 8 | 359 | 4.8 | 8.0 | 0.00 | 0.48 | 0.03 | 80 | 1006.6 |
| 20260507100025 | 8 | 300 | 4.8 | 11.3 | 0.00 | 0.48 | 0.03 | 80 | 1006.8 |
| 20260507094508 | 8 | 4 | 4.8 | 11.3 | 0.00 | 0.48 | 0.03 | 80 | 1006.7 |
| 20260507093016 | 8 | 359 | 4.8 | 8.0 | 0.00 | 0.48 | 0.03 | 80 | 1006.8 |
| 20260507091529 | 8 | 321 | 4.8 | 14.5 | 0.00 | 0.48 | 0.03 | 80 | 1006.7 |
| 20260507090021 | 8 | 264 | 11.3 | 14.5 | 0.00 | 0.48 | 0.03 | 80 | 1007.0 |
| 20260507084538 | 9 | 311 | 4.8 | 11.3 | 0.00 | 0.48 | 0.03 | 83 | 1006.8 |
| 20260507083012 | 9 | 298 | 3.2 | 9.7 | 0.00 | 0.48 | 0.03 | 83 | 1006.7 |
| 20260507081516 | 9 | 288 | 3.2 | 6.4 | 0.00 | 0.48 | 0.03 | 81 | 1006.5 |
| 20260507080021 | 10 | 22 | 1.6 | 8.0 | 0.00 | 0.48 | 0.03 | 80 | 1006.4 |
| 20260507074526 | 10 | 303 | 4.8 | 14.5 | 0.00 | 0.48 | 0.03 | 79 | 1006.5 |
| 20260507073026 | 10 | 293 | 8.0 | 19.3 | 0.00 | 0.48 | 0.03 | 78 | 1007.0 |
| 20260507071520 | 10 | 302 | 4.8 | 14.5 | 0.00 | 0.48 | 0.03 | 79 | 1006.2 |
| 20260507070020 | 10 | 335 | 6.4 | 12.9 | 0.00 | 0.48 | 0.03 | 83 | 1006.0 |
| 20260507064524 | 11 | 309 | 3.2 | 6.4 | 0.00 | 0.48 | 0.03 | 84 | 1005.8 |
| 20260507063028 | 11 | 311 | 6.4 | 9.7 | 0.00 | 0.48 | 0.03 | 83 | 1005.8 |
| 20260507061528 | 11 | 339 | 3.2 | 4.8 | 0.00 | 0.48 | 0.03 | 83 | 1005.9 |
| 20260507060021 | 11 | 289 | 3.2 | 8.0 | 0.00 | 0.48 | 0.03 | 82 | 1006.0 |
| 20260507054522 | 11 | 360 | 4.8 | 11.3 | 0.00 | 0.48 | 0.03 | 81 | 1006.3 |
| 20260507053004 | 11 | 335 | 6.4 | 19.3 | 0.00 | 0.48 | 0.03 | 80 | 1006.4 |
| 20260507051509 | 11 | 285 | 4.8 | 16.1 | 0.03 | 0.48 | 0.03 | 82 | 1006.2 |
| 20260507050033 | 11 | 325 | 8.0 | 14.5 | 0.03 | 0.48 | 0.03 | 82 | 1006.8 |
| 20260507044513 | 11 | 293 | 6.4 | 17.7 | 0.08 | 0.48 | 0.03 | 83 | 1006.3 |
| 20260507043003 | 12 | 349 | 4.8 | 22.5 | 0.08 | 0.48 | 0.03 | 84 | 1006.5 |
| 20260507041511 | 12 | 9 | 8.0 | 16.1 | 0.05 | 0.46 | 0.00 | 86 | 1006.4 |
| 20260507040010 | 13 | 305 | 4.8 | 16.1 | 0.05 | 0.46 | 0.00 | 88 | 1006.2 |
| 20260507034513 | 13 | 285 | 3.2 | 19.3 | 0.00 | 0.41 | 0.41 | 85 | 1006.1 |
| 20260507033014 | 14 | 23 | 4.8 | 19.3 | 0.00 | 0.41 | 0.41 | 85 | 1005.8 |
| 20260507031507 | 14 | 360 | 3.2 | 19.3 | 0.00 | 0.41 | 0.41 | 88 | 1005.4 |
| 20260507030008 | 15 | 293 | 12.9 | 22.5 | 0.00 | 0.41 | 0.41 | 93 | 1005.2 |
| 20260507024515 | 15 | 262 | 4.8 | 8.0 | 0.00 | 0.41 | 0.41 | 93 | 1005.2 |
| 20260507023016 | 15 | 266 | 6.4 | 14.5 | 0.00 | 0.41 | 0.41 | 93 | 1005.0 |
| 20260507021523 | 15 | 269 | 4.8 | 9.7 | 0.00 | 0.41 | 0.41 | 92 | 1004.9 |
| 20260507020008 | 15 | 271 | 4.8 | 11.3 | 0.00 | 0.41 | 0.41 | 92 | 1004.7 |
| 20260507014511 | 15 | 226 | 4.8 | 9.7 | 0.00 | 0.41 | 0.41 | 92 | 1004.8 |
| 20260507013016 | 15 | 197 | 6.4 | 14.5 | 0.00 | 0.41 | 0.41 | 92 | 1004.8 |
| 20260507011523 | 15 | 213 | 6.4 | 16.1 | 0.00 | 0.41 | 0.41 | 92 | 1004.9 |
| 20260507010030 | 15 | 219 | 8.0 | 16.1 | 0.00 | 0.41 | 0.41 | 93 | 1004.9 |
| 20260507004512 | 15 | 181 | 3.2 | 12.9 | 0.00 | 0.41 | 0.41 | 93 | 1004.8 |
| 20260507003016 | 15 | 240 | 6.4 | 16.1 | 0.00 | 0.41 | 0.41 | 93 | 1004.8 |
| 20260507001518 | 15 | 205 | 4.8 | 12.9 | 0.00 | 0.41 | 0.41 | 92 | 1004.6 |
| 20260507000025 | 15 | 232 | 4.8 | 17.7 | 0.03 | 0.41 | 0.41 | 93 | 1004.7 |
| 20260506234524 | 15 | 238 | 6.4 | 14.5 | 0.08 | 0.41 | 0.41 | 92 | 1004.7 |
| 20260506233014 | 15 | 190 | 8.0 | 16.1 | 0.13 | 0.41 | 0.41 | 92 | 1004.6 |
| 20260506231520 | 15 | 196 | 6.4 | 17.7 | 0.15 | 0.41 | 0.41 | 92 | 1004.6 |
| 20260506230024 | 15 | 229 | 6.4 | 11.3 | 0.13 | 0.38 | 0.38 | 92 | 1004.7 |
| 20260506224524 | 15 | 211 | 4.8 | 19.3 | 0.10 | 0.33 | 0.33 | 92 | 1004.8 |
| 20260506223024 | 15 | 271 | 6.4 | 16.1 | 0.10 | 0.28 | 0.28 | 91 | 1004.6 |
| 20260506221516 | 15 | 193 | 6.4 | 17.7 | 0.08 | 0.25 | 0.25 | 91 | 1004.8 |
| 20260506220022 | 15 | 220 | 12.9 | 24.1 | 0.08 | 0.25 | 0.25 | 90 | 1004.8 |
| 20260506214522 | 15 | 221 | 6.4 | 27.4 | 0.08 | 0.23 | 0.23 | 90 | 1004.9 |
| 20260506213025 | 15 | 148 | 9.7 | 25.7 | 0.05 | 0.18 | 0.18 | 89 | 1004.8 |
| 20260506211538 | 15 | 169 | 8.0 | 24.1 | 0.05 | 0.18 | 0.18 | 90 | 1005.1 |
| 20260506210031 | 15 | 271 | 6.4 | 30.6 | 0.08 | 0.18 | 0.18 | 89 | 1005.3 |
| 20260506204531 | 15 | 225 | 11.3 | 20.9 | 0.05 | 0.15 | 0.15 | 89 | 1005.4 |
| 20260506203007 | 16 | 252 | 8.0 | 22.5 | 0.03 | 0.13 | 0.13 | 89 | 1005.5 |
| 20260506201511 | 16 | 248 | 11.3 | 25.7 | 0.03 | 0.13 | 0.13 | 87 | 1005.4 |
| 20260506200018 | 16 | 221 | 8.0 | 24.1 | 0.03 | 0.10 | 0.10 | 85 | 1005.6 |
| 20260506194522 | 16 | 210 | 9.7 | 19.3 | 0.05 | 0.10 | 0.10 | 84 | 1005.7 |
| 20260506193003 | 17 | 221 | 8.0 | 19.3 | 0.10 | 0.10 | 0.10 | 84 | 1005.6 |
| 20260506191511 | 17 | 210 | 11.3 | 20.9 | 0.10 | 0.10 | 0.10 | 85 | 1005.7 |
| 20260506190016 | 17 | 205 | 1.6 | 12.9 | 0.08 | 0.08 | 0.08 | 84 | 1005.5 |
| 20260506184520 | 17 | 260 | 8.0 | 20.9 | 0.05 | 0.05 | 0.05 | 81 | 1005.9 |
| 20260506183024 | 18 | 270 | 6.4 | 17.7 | 0.00 | 0.00 | 0.00 | 76 | 1005.9 |
| 20260506181526 | 20 | 266 | 9.7 | 29.0 | 0.00 | 0.00 | 0.00 | 66 | 1006.0 |
| 20260506180014 | 21 | 239 | 19.3 | 30.6 | 0.00 | 0.00 | 0.00 | 60 | 1005.9 |
| 20260506174515 | 21 | 239 | 16.1 | 32.2 | 0.00 | 0.00 | 0.00 | 56 | 1005.8 |
| 20260506173038 | 22 | 233 | 16.1 | 30.6 | 0.00 | 0.00 | 0.00 | 54 | 1005.8 |
| 20260506171537 | 22 | 276 | 12.9 | 30.6 | 0.00 | 0.00 | 0.00 | 55 | 1005.7 |
| 20260506170011 | 22 | 262 | 11.3 | 35.4 | 0.00 | 0.00 | 0.00 | 56 | 1005.8 |
| 20260506164517 | 21 | 237 | 9.7 | 25.7 | 0.00 | 0.00 | 0.00 | 57 | 1006.0 |
| 20260506163027 | 21 | 195 | 22.5 | 45.1 | 0.00 | 0.00 | 0.00 | 57 | 1006.2 |
| 20260506161526 | 21 | 217 | 9.7 | 25.7 | 0.00 | 0.00 | 0.00 | 60 | 1006.5 |
| 20260506160011 | 21 | 244 | 14.5 | 22.5 | 0.00 | 0.00 | 0.00 | 61 | 1006.9 |
| 20260506154514 | 20 | 252 | 8.0 | 27.4 | 0.00 | 0.00 | 0.00 | 62 | 1007.3 |